CheckWX is a tool to help pilots better visualize weather data.  It is not intended as a substitute for an official pre-flight weather briefing.

09:28:46 UTC

KETB METAR
West Bend Municipal Airport
West Bend, Wisconsin, USA
Current

34 mins ago

KETB 200855Z AUTO 10006KT 10SM SCT075 M03/M05 A3019 RMK AO2
Observed
Feb-20 @ 08:55 UTC
Wind
  • 100° at 6 KTS
Visibility
16,093 meters
Flight Rules
VFR
Cloud Levels
  • Scattered at 7,500' AGL
Temperature
-3°C / 27°F
Dewpoint
-5°C / 23°F
Humidity
86%
Altimeter
30.19" Hg
Pressure
1022.32 hPa
Previous

54 mins ago

KETB 200835Z AUTO 09005KT 10SM SCT065 OVC075 M05/M06 A3020 RMK AO2
Observed
Feb-20 @ 08:35 UTC
Wind
  • 090° at 5 KTS
Visibility
16,093 meters
Flight Rules
VFR
Cloud Levels
  • Scattered at 6,500' AGL
  • Overcast at 7,500' AGL
Temperature
-5°C / 23°F
Dewpoint
-6°C / 21°F
Humidity
93%
Altimeter
30.2" Hg
Pressure
1022.72 hPa
Previous

1 hour ago

KETB 200815Z AUTO 05004KT 10SM SCT019 BKN065 OVC075 M05/M06 A3023 RMK AO2
Observed
Feb-20 @ 08:15 UTC
Wind
  • 050° at 4 KTS
Visibility
16,093 meters
Flight Rules
VFR
Cloud Levels
  • Scattered at 1,900' AGL
  • Broken at 6,500' AGL
  • Overcast at 7,500' AGL
Temperature
-5°C / 23°F
Dewpoint
-6°C / 21°F
Humidity
93%
Altimeter
30.23" Hg
Pressure
1023.72 hPa